EZY38MA EGGD-EGNS
Flight info
| Callsign | EZY38MA |
|---|---|
| Flight time | N/A |
| Altitude | 24000 |
| Route | BCN P69 DIZIM N864 WAL M146 LUSOD DCT IOM |
| Aircraft | A320/M-SDE2E3FGHIJ1RWXY/LB1 |
Departure
| Time | 2026-04-30 15:08 |
|---|---|
| Airport | Bristol Airport (EGGD) |
Arrival
| Time | N/A |
|---|---|
| Airport | Isle of Man Airport (EGNS) |
| Time | Latitude | Longitude | Altitude | Speed | Heading |
|---|---|---|---|---|---|
| 2026-04-30 14:33 | 51.38545 | -2.71480 | 612 ft | 0 kts | 356° |
| 2026-04-30 14:58 | 51.38528 | -2.71479 | 624 ft | 3 kts | 356° |
| 2026-04-30 14:58 | 51.38509 | -2.71477 | 619 ft | 3 kts | 3° |
| 2026-04-30 14:58 | 51.38484 | -2.71510 | 624 ft | 1 kts | 86° |
| 2026-04-30 14:59 | 51.38486 | -2.71462 | 627 ft | 0 kts | 86° |
| 2026-04-30 15:01 | 51.38486 | -2.71460 | 612 ft | 1 kts | 86° |
| 2026-04-30 15:02 | 51.38482 | -2.71425 | 628 ft | 5 kts | 117° |
| 2026-04-30 15:02 | 51.38451 | -2.71433 | 622 ft | 6 kts | 233° |
| 2026-04-30 15:03 | 51.38432 | -2.71927 | 606 ft | 16 kts | 272° |
| 2026-04-30 15:03 | 51.38421 | -2.72335 | 610 ft | 18 kts | 266° |
| 2026-04-30 15:04 | 51.38406 | -2.72712 | 615 ft | 18 kts | 267° |
| 2026-04-30 15:04 | 51.38389 | -2.73142 | 607 ft | 6 kts | 266° |
| 2026-04-30 15:05 | 51.38339 | -2.73332 | 622 ft | 7 kts | 208° |
| 2026-04-30 15:06 | 51.38245 | -2.73326 | 621 ft | 7 kts | 159° |
| 2026-04-30 15:06 | 51.38215 | -2.73241 | 627 ft | 0 kts | 86° |
| 2026-04-30 15:08 | 51.38247 | -2.72452 | 629 ft | 101 kts | 86° |
| 2026-04-30 15:08 | 51.38412 | -2.67762 | 2121 ft | 155 kts | 92° |
| 2026-04-30 15:09 | 51.38515 | -2.63823 | 2794 ft | 201 kts | 91° |
| 2026-04-30 15:09 | 51.38868 | -2.58862 | 3767 ft | 249 kts | 70° |
| 2026-04-30 15:10 | 51.41861 | -2.55699 | 5306 ft | 291 kts | 2° |
| 2026-04-30 15:11 | 51.47196 | -2.63385 | 8454 ft | 298 kts | 296° |
| 2026-04-30 15:11 | 51.49167 | -2.69074 | 10691 ft | 277 kts | 297° |
| 2026-04-30 15:12 | 51.52379 | -2.77327 | 12225 ft | 320 kts | 301° |
| 2026-04-30 15:13 | 51.55017 | -2.83722 | 12755 ft | 366 kts | 302° |
| 2026-04-30 15:14 | 51.60900 | -2.97873 | 15157 ft | 392 kts | 301° |
| 2026-04-30 15:14 | 51.65481 | -3.09001 | 17035 ft | 403 kts | 300° |
| 2026-04-30 15:16 | 51.75894 | -3.24064 | 19790 ft | 426 kts | 349° |
| 2026-04-30 15:17 | 51.87662 | -3.22600 | 21768 ft | 430 kts | 12° |
| 2026-04-30 15:18 | 52.02688 | -3.18849 | 24000 ft | 445 kts | 12° |
| 2026-04-30 15:19 | 52.11914 | -3.17934 | 24134 ft | 437 kts | 5° |